Flight Track Log - Related Links

Times and Time Zones

All times are in EDT time to prevent confusion due to time zone crossing. See the SWA118 flight status page for this flight to view local times or setup timezone preferences in your user account.

Time Position Orientation Groundspeed Altitude Reporting Facility
EDT Latitude Longitude Course Direction KTS MPH feet Rate Location/Type
Thu 03:09:21 PM 29.6306 -95.2608 24° Northeast 154 177 1,100  Level Houston Center
Thu 03:10:22 PM 29.6789 -95.2358 24° Northeast 259 298 3,000 1,829 Climbing Houston Center
Thu 03:10:43 PM 29.7033 -95.2419 348° North 262 302 3,600 2,951 Climbing Houston Center
Thu 03:11:23 PM 29.7553 -95.2675 337° Northwest 291 335 6,000 3,097 Climbing Houston Center
Thu 03:11:45 PM 29.7783 -95.2786 337° Northwest 292 336 6,800 3,000 Climbing Houston Center
Thu 03:12:47 PM 29.8606 -95.2989 348° North 310 357 10,200 2,613 Climbing Houston Center
Thu 03:13:49 PM 29.9656 -95.2811 North 345 397 12,200 2,226 Climbing Houston Center
Thu 03:14:51 PM 30.0625 -95.2656 North 379 436 14,800 2,640 Climbing Houston Center
Thu 03:15:54 PM 30.1708 -95.2472 North 393 452 17,700 2,640 Climbing Houston Center
Thu 03:16:56 PM 30.3047 -95.2164 11° North 412 474 20,300 2,226 Climbing Houston Center
Thu 03:17:58 PM 30.4178 -95.1736 18° North 427 491 22,300 1,935 Climbing Houston Center
Thu 03:19:00 PM 30.5425 -95.1033 26° Northeast 450 518 24,300 1,887 Climbing Houston Center
Thu 03:20:02 PM 30.6564 -95.0333 28° Northeast 461 531 26,200 1,645 Climbing Houston Center
Thu 03:21:04 PM 30.7725 -94.9608 28° Northeast 471 542 27,700 1,403 Climbing Houston Center
Thu 03:22:06 PM 30.8900 -94.8872 28° Northeast 476 548 29,100 1,419 Climbing Houston Center
Thu 03:22:37 PM 30.9617 -94.8431 28° Northeast 474 545 29,900 1,516 Climbing Fort Worth Center
Thu 03:23:37 PM 31.0792 -94.7697 28° Northeast 476 548 31,400 1,350 Climbing Fort Worth Center
Thu 03:24:37 PM 31.1925 -94.6983 28° Northeast 481 554 32,600 1,350 Climbing Fort Worth Center
Thu 03:25:37 PM 31.3056 -94.6172 32° Northeast 492 566 34,100 1,200 Climbing Fort Worth Center
Thu 03:26:37 PM 31.4269 -94.5333 31° Northeast 490 564 35,000 450 Climbing Fort Worth Center
Thu 03:27:37 PM 31.5419 -94.4542 30° Northeast 485 558 35,000  Level Fort Worth Center
Thu 03:28:38 PM 31.6569 -94.3750 30° Northeast 480 552 35,000  Level Fort Worth Center
Thu 03:29:37 PM 31.7697 -94.2953 31° Northeast 480 552 35,000  Level Fort Worth Center
Thu 03:30:37 PM 31.8867 -94.2131 31° Northeast 480 552 35,000  Level Fort Worth Center
Thu 03:31:37 PM 31.9994 -94.1333 31° Northeast 480 552 35,000 550 Level Fort Worth Center
Thu 03:32:37 PM 32.1183 -94.0506 31° Northeast 480 552 36,100 1,000 Climbing Fort Worth Center
Thu 03:33:37 PM 32.2289 -93.9703 32° Northeast 480 552 37,000 450 Climbing Fort Worth Center
Thu 03:34:37 PM 32.3436 -93.8847 32° Northeast 474 545 37,000  Level Fort Worth Center
Thu 03:35:37 PM 32.4581 -93.8042 31° Northeast 474 545 37,000  Level Fort Worth Center
Thu 03:36:37 PM 32.5706 -93.7231 31° Northeast 474 545 37,000  Level Fort Worth Center
Thu 03:37:37 PM 32.6872 -93.6419 30° Northeast 474 545 37,000  Level Fort Worth Center
Thu 03:38:37 PM 32.7994 -93.5581 32° Northeast 479 551 37,000  Level Fort Worth Center
Thu 03:39:37 PM 32.9139 -93.4789 30° Northeast 479 551 37,000  Level Fort Worth Center
Thu 03:40:37 PM 33.0281 -93.3972 31° Northeast 479 551 37,000  Level Fort Worth Center
Thu 03:41:37 PM 33.1444 -93.3150 31° Northeast 479 551 37,000  Level Fort Worth Center
Thu 03:42:37 PM 33.2586 -93.2303 32° Northeast 479 551 37,000  Level Fort Worth Center
Thu 03:44:08 PM 33.4414 -93.0981 31° Northeast 496 571 37,000  Level Memphis Center
Thu 03:45:08 PM 33.5558 -93.0169 31° Northeast 491 565 37,000  Level Memphis Center
Thu 03:46:09 PM 33.6639 -92.9403 31° Northeast 485 558 37,000  Level Memphis Center
Thu 03:47:08 PM 33.7783 -92.8589 31° Northeast 485 558 37,000  Level Memphis Center
Thu 03:48:08 PM 33.8928 -92.7719 32° Northeast 480 552 37,000  Level Memphis Center
Thu 03:49:08 PM 34.0069 -92.6875 32° Northeast 480 552 37,000  Level Memphis Center
Thu 03:50:08 PM 34.1150 -92.6000 34° Northeast 475 547 37,000  Level Memphis Center
Thu 03:51:09 PM 34.2292 -92.5150 32° Northeast 469 540 37,000 -150 Level Memphis Center
Thu 03:52:08 PM 34.3369 -92.4372 31° Northeast 469 540 36,700 -1,361 Descending Memphis Center
Thu 03:53:08 PM 34.4406 -92.3592 32° Northeast 446 513 34,300 -1,850 Descending Memphis Center
Thu 03:54:08 PM 34.5461 -92.2786 32° Northeast 440 506 33,000 -650 Descending Memphis Center
Thu 03:55:08 PM 34.6517 -92.1975 32° Northeast 440 506 33,000  Level Memphis Center
Thu 03:56:08 PM 34.7672 -92.1444 21° North 434 499 33,000  Level Memphis Center
Thu 03:57:08 PM 34.8847 -92.1014 17° North 434 499 33,000 -298 Level Memphis Center
Thu 03:58:09 PM 35.0000 -92.0581 17° North 434 499 32,400 -1,500 Descending Memphis Center
Thu 03:59:08 PM 35.1153 -92.0122 18° North 434 499 30,000 -2,723 Descending Memphis Center
Thu 04:00:08 PM 35.2433 -91.9639 17° North 428 493 27,000 -1,500 Descending Memphis Center
Thu 04:01:08 PM 35.3544 -91.9175 19° North 428 493 27,000  Level Memphis Center
Thu 04:02:08 PM 35.4633 -91.8789 16° North 417 480 27,000  Level Memphis Center
Thu 04:03:08 PM 35.5703 -91.8347 19° North 412 474 27,000  Level Memphis Center
Thu 04:04:08 PM 35.6833 -91.7908 18° North 407 468 27,000  Level Memphis Center
Thu 04:05:08 PM 35.7903 -91.7492 18° North 407 468 27,000  Level Memphis Center
Thu 04:06:08 PM 35.9011 -91.7050 18° North 407 468 27,000  Level Memphis Center
Thu 04:07:08 PM 36.0081 -91.6606 19° North 402 463 27,000  Level Memphis Center
Thu 04:08:09 PM 36.1231 -91.6161 17° North 407 468 27,000  Level Memphis Center
Thu 04:09:08 PM 36.2361 -91.5714 18° North 412 474 27,000  Level Memphis Center
Thu 04:10:08 PM 36.3450 -91.5267 18° North 412 474 27,000  Level Memphis Center
Thu 04:11:08 PM 36.4558 -91.4819 18° North 417 480 27,000  Level Memphis Center
Thu 04:12:08 PM 36.5731 -91.4369 17° North 427 491 27,000  Level Memphis Center
Thu 04:13:08 PM 36.6839 -91.3919 18° North 421 484 27,000  Level Memphis Center
Thu 04:15:04 PM 36.8803 -91.3119 18° North 421 484 27,000  Level Kansas City Center
Thu 04:16:06 PM 37.0139 -91.2575 18° North 420 483 27,000  Level Kansas City Center
Thu 04:17:08 PM 37.1264 -91.2106 18° North 422 486 27,000  Level Kansas City Center
Thu 04:18:10 PM 37.2386 -91.1647 18° North 425 489 27,000  Level Kansas City Center
Thu 04:19:12 PM 37.3522 -91.1189 18° North 427 491 27,000  Level Kansas City Center
Thu 04:20:14 PM 37.4647 -91.0719 18° North 426 490 27,000  Level Kansas City Center
Thu 04:21:17 PM 37.5786 -91.0250 18° North 429 494 27,000  Level Kansas City Center
Thu 04:22:18 PM 37.7031 -90.9739 18° North 432 497 27,000  Level Kansas City Center
Thu 04:23:20 PM 37.8167 -90.9264 18° North 431 496 27,000  Level Kansas City Center
Thu 04:24:22 PM 37.9319 -90.8786 18° North 435 501 27,000  Level Kansas City Center
Thu 04:25:24 PM 38.0706 -90.8208 18° North 436 502 27,000  Level Kansas City Center
Thu 04:26:26 PM 38.1856 -90.7719 18° North 436 502 27,000  Level Kansas City Center
Thu 04:27:29 PM 38.3003 -90.7231 18° North 435 501 27,000  Level Kansas City Center
Thu 04:28:31 PM 38.4275 -90.6694 18° North 432 497 27,000  Level Kansas City Center
Thu 04:29:33 PM 38.5400 -90.6211 19° North 428 493 27,000  Level Kansas City Center
Thu 04:30:35 PM 38.6539 -90.5725 18° North 429 494 27,000  Level Kansas City Center
Thu 04:31:37 PM 38.7717 -90.5508 North 430 495 27,000  Level Kansas City Center
Thu 04:32:39 PM 38.8886 -90.5453 North 422 486 27,000  Level Kansas City Center
Thu 04:33:41 PM 39.0228 -90.5400 North 423 487 27,000  Level Kansas City Center
Thu 04:34:43 PM 39.1400 -90.5319 North 422 486 27,000  Level Kansas City Center
Thu 04:35:45 PM 39.2581 -90.5050 10° North 426 490 27,000  Level Kansas City Center
Thu 04:36:47 PM 39.3742 -90.4669 14° North 431 496 27,000  Level Kansas City Center
Thu 04:37:49 PM 39.4853 -90.4083 22° Northeast 432 497 27,000  Level Kansas City Center
Thu 04:38:51 PM 39.5969 -90.3517 21° North 430 495 27,000  Level Kansas City Center
Thu 04:39:53 PM 39.7286 -90.2836 22° Northeast 427 491 27,000  Level Kansas City Center
Thu 04:40:55 PM 39.8264 -90.2322 22° Northeast 426 490 27,000  Level Kansas City Center
Thu 04:41:31 PM 39.8919 -90.2011 20° North 426 490 27,000  Level Chicago Center
Thu 04:42:33 PM 40.0022 -90.1453 21° North 426 490 27,000  Level Chicago Center
Thu 04:43:35 PM 40.1339 -90.0769 22° Northeast 426 490 27,000 -194 Level Chicago Center
Thu 04:44:37 PM 40.2439 -90.0194 22° Northeast 423 487 26,600 -677 Descending Chicago Center
Thu 04:45:39 PM 40.3525 -89.9642 21° North 420 483 25,600 -1,016 Descending Chicago Center
Thu 04:46:41 PM 40.4578 -89.9089 22° Northeast 412 474 24,500 -1,016 Descending Chicago Center
Thu 04:47:43 PM 40.5675 -89.8514 22° Northeast 406 467 23,500 -968 Descending Chicago Center
Thu 04:48:45 PM 40.6622 -89.7808 29° Northeast 403 464 22,500 -968 Descending Chicago Center
Thu 04:49:47 PM 40.7322 -89.6703 50° Northeast 392 451 21,500 -1,258 Descending Chicago Center
Thu 04:50:49 PM 40.8119 -89.5403 51° Northeast 380 437 19,900 -1,500 Descending Chicago Center
Thu 04:51:51 PM 40.8708 -89.4458 50° Northeast 371 427 18,400 -1,403 Descending Chicago Center
Thu 04:52:53 PM 40.9358 -89.3400 51° Northeast 370 426 17,000 -672 Descending Chicago Center
Thu 04:53:56 PM 41.0100 -89.2156 52° Northeast 361 415 17,000 -576 Level Chicago Center
Thu 04:54:58 PM 41.0653 -89.1253 51° Northeast 359 413 15,800 -1,548 Descending Chicago Center
Thu 04:56:00 PM 41.1389 -89.0008 52° Northeast 359 413 13,800 -1,790 Descending Chicago Center
Thu 04:57:02 PM 41.2017 -88.8994 51° Northeast 358 412 12,100 -1,597 Descending Chicago Center
Thu 04:58:04 PM 41.2586 -88.7992 53° Northeast 345 397 10,500 -1,306 Descending Chicago Center
Thu 04:59:06 PM 41.3150 -88.7078 51° Northeast 326 375 9,400 -1,210 Descending Chicago Center
Thu 05:00:08 PM 41.3944 -88.6594 25° Northeast 323 372 8,000 -1,452 Descending Chicago Center
Thu 05:01:10 PM 41.4600 -88.5728 45° Northeast 307 353 6,400 -968 Descending Chicago Center
Thu 05:02:12 PM 41.4881 -88.4694 70° East 297 342 6,000 -192 Descending Chicago Center
Thu 05:03:15 PM 41.5083 -88.3689 75° East 287 330 6,000  Level Chicago Center
Thu 05:04:17 PM 41.5306 -88.2711 73° East 278 320 6,000 -484 Level Chicago Center
Thu 05:05:19 PM 41.5433 -88.1672 81° East 281 323 5,000 -484 Descending Chicago Center
Thu 05:06:21 PM 41.5544 -88.0628 82° East 282 325 5,000  Level Chicago Center
Thu 05:07:23 PM 41.5658 -87.9575 82° East 284 327 5,000  Level Chicago Center
Thu 05:08:25 PM 41.5789 -87.8431 81° East 264 304 5,000  Level Chicago Center
Thu 05:09:27 PM 41.5828 -87.7564 87° East 247 284 5,000 -484 Level Chicago Center
Thu 05:10:29 PM 41.5811 -87.6661 91° East 244 281 4,000 -823 Descending Chicago Center
Thu 05:11:31 PM 41.6261 -87.6031 46° Northeast 238 274 3,300 -677 Descending Chicago Center
Thu 05:12:33 PM 41.6717 -87.5961 North 216 249 2,600 -387 Descending Chicago Center
Thu 05:13:35 PM 41.7147 -87.6533 315° West 193 222 2,500 -48 Descending Chicago Center
Thu 05:14:37 PM 41.7644 -87.6731 344° North 192 221 2,500 -339 Level Chicago Center
Thu 05:15:39 PM 41.8089 -87.6856 348° North 180 207 1,800 -763 Descending Chicago Center
Thu 05:16:35 PM 41.8000 -87.7333 256° West 133 153 1,000 -857 Descending Chicago TRACON

Login

Don't have an account? Register now (free) for customized features, flight alerts, and more!